Flight Track Log - Related Links

Times and Time Zones

All times are in EDT time to prevent confusion due to time zone crossing. See the SVA1485 flight status page for this flight to view local times or setup timezone preferences in your user account.

Time Position Orientation Groundspeed Altitude Reporting Facility
EDT Latitude Longitude Course Direction KTS MPH feet Rate Location/Type
Thu 11:43:00 AM 26.3745 43.9541 225° Southwest  Level Estimated
Thu 11:44:00 AM 26.3012 43.8751 224° Southwest  Level Estimated
Thu 11:45:00 AM 26.2279 43.7963 224° Southwest  Level Estimated
Thu 11:46:00 AM 26.1546 43.7175 224° Southwest  Level Estimated
Thu 11:47:00 AM 26.0812 43.6388 224° Southwest  Level Estimated
Thu 11:48:00 AM 26.0078 43.5603 224° Southwest  Level Estimated
Thu 11:49:00 AM 25.9343 43.4818 224° Southwest  Level Estimated
Thu 11:50:00 AM 25.8608 43.4035 224° Southwest  Level Estimated
Thu 11:51:00 AM 25.7873 43.3252 224° Southwest  Level Estimated
Thu 11:52:00 AM 25.7137 43.2470 224° Southwest  Level Estimated
Thu 11:53:00 AM 25.6401 43.1689 224° Southwest  Level Estimated
Thu 11:54:00 AM 25.5664 43.0910 224° Southwest  Level Estimated
Thu 11:55:00 AM 25.4927 43.0131 224° Southwest  Level Estimated
Thu 11:56:00 AM 25.4189 42.9353 224° Southwest  Level Estimated
Thu 11:57:00 AM 25.3451 42.8576 224° Southwest  Level Estimated
Thu 11:58:00 AM 25.2713 42.7800 224° Southwest  Level Estimated
Thu 11:59:00 AM 25.1974 42.7025 224° Southwest  Level Estimated
Thu 12:00:00 PM 25.1235 42.6251 223° Southwest  Level Estimated
Thu 12:01:00 PM 25.0495 42.5478 223° Southwest  Level Estimated
Thu 12:02:00 PM 24.9755 42.4706 223° Southwest  Level Estimated
Thu 12:03:00 PM 24.9015 42.3934 223° Southwest  Level Estimated
Thu 12:04:00 PM 24.8274 42.3164 223° Southwest  Level Estimated
Thu 12:05:00 PM 24.7533 42.2395 223° Southwest  Level Estimated
Thu 12:06:00 PM 24.6791 42.1626 223° Southwest  Level Estimated
Thu 12:07:00 PM 24.6049 42.0858 223° Southwest  Level Estimated
Thu 12:08:00 PM 24.5307 42.0092 223° Southwest  Level Estimated
Thu 12:09:00 PM 24.4564 41.9326 223° Southwest  Level Estimated
Thu 12:10:00 PM 24.3821 41.8561 223° Southwest  Level Estimated
Thu 12:11:00 PM 24.3078 41.7797 223° Southwest  Level Estimated
Thu 12:12:00 PM 24.2334 41.7034 223° Southwest  Level Estimated
Thu 12:13:00 PM 24.1590 41.6272 223° Southwest  Level Estimated
Thu 12:14:00 PM 24.0845 41.5510 223° Southwest  Level Estimated
Thu 12:15:00 PM 24.0100 41.4750 223° Southwest  Level Estimated
Thu 12:16:00 PM 23.9354 41.3991 223° Southwest  Level Estimated
Thu 12:17:00 PM 23.8609 41.3232 223° Southwest  Level Estimated
Thu 12:18:00 PM 23.7863 41.2474 223° Southwest  Level Estimated
Thu 12:19:00 PM 23.7116 41.1717 223° Southwest  Level Estimated
Thu 12:20:00 PM 23.6369 41.0961 223° Southwest  Level Estimated
Thu 12:21:00 PM 23.5622 41.0206 223° Southwest  Level Estimated
Thu 12:22:00 PM 23.4874 40.9452 223° Southwest  Level Estimated
Thu 12:23:00 PM 23.4126 40.8698 223° Southwest  Level Estimated
Thu 12:24:00 PM 23.3378 40.7946 223° Southwest  Level Estimated
Thu 12:25:00 PM 23.2629 40.7194 223° Southwest  Level Estimated
Thu 12:26:00 PM 23.1880 40.6443 223° Southwest  Level Estimated
Thu 12:27:00 PM 23.1131 40.5693 223° Southwest  Level Estimated
Thu 12:28:00 PM 23.0381 40.4943 223° Southwest  Level Estimated
Thu 12:29:00 PM 22.9631 40.4195 223° Southwest  Level Estimated
Thu 12:30:00 PM 22.8881 40.3447 223° Southwest  Level Estimated
Thu 12:31:00 PM 22.8130 40.2701 223° Southwest  Level Estimated
Thu 12:32:00 PM 22.7379 40.1955 222° Southwest  Level Estimated
Thu 12:33:00 PM 22.6627 40.1210 222° Southwest  Level Estimated
Thu 12:34:00 PM 22.5875 40.0465 222° Southwest  Level Estimated
Thu 12:35:00 PM 22.5123 39.9722 222° Southwest  Level Estimated
Thu 12:36:00 PM 22.4371 39.8979 222° Southwest  Level Estimated
Thu 12:37:00 PM 22.3618 39.8237 222° Southwest  Level Estimated
Thu 12:38:00 PM 22.2865 39.7496 222° Southwest  Level Estimated
Thu 12:39:00 PM 22.2111 39.6756 222° Southwest  Level Estimated
Thu 12:40:00 PM 22.1357 39.6016 222° Southwest  Level Estimated
Thu 12:41:00 PM 22.0603 39.5278 222° Southwest  Level Estimated
Thu 12:42:00 PM 21.9849 39.4540 222° Southwest  Level Estimated
Thu 12:43:00 PM 21.9094 39.3803 222° Southwest  Level Estimated
Thu 12:44:00 PM 21.8339 39.3066 222° Southwest  Level Estimated
Thu 12:45:00 PM 21.7583 39.2331 222° Southwest  Level Estimated
Thu 12:46:00 PM 21.6827 39.1596 222° Southwest  Level Estimated
Thu 12:47:00 PM 21.6796 39.1565 222° Southwest  Level Estimated
Thu 12:48:00 PM 21.6796 39.1565 317° Northwest  Level Estimated
Thu 12:49:00 PM 21.6796 39.1565 317° Northwest  Level Estimated
Thu 12:50:00 PM 21.6796 39.1565 317° Northwest  Level Estimated
Thu 12:51:00 PM 21.6796 39.1565 317° Northwest  Level Estimated
Thu 12:52:00 PM 21.6796 39.1565 317° Northwest  Level Estimated
Thu 12:53:00 PM 21.6796 39.1565 317° Northwest  Level Estimated
Thu 12:54:00 PM 21.6796 39.1565 317° Northwest  Level Estimated
Thu 12:55:00 PM 21.6796 39.1565 317° Northwest  Level Estimated
Thu 12:56:00 PM 21.6796 39.1565 317° Northwest  Level Estimated
Thu 12:57:00 PM 21.6796 39.1565 317° Northwest  Level Estimated
Thu 12:58:00 PM 21.6796 39.1565 317° Northwest  Level Estimated
Thu 12:59:00 PM 21.6796 39.1565 317° Northwest  Level Estimated
Thu 01:00:00 PM 21.6796 39.1565 317° Northwest  Level Estimated
Thu 01:01:00 PM 21.6796 39.1565 317° Northwest  Level Estimated
Thu 01:02:00 PM 21.6796 39.1565 317° Northwest  Level Estimated

Login

Don't have an account? Register now (free) for customized features, flight alerts, and more!